createdAt,value
2023-01-08T00:01:14.543Z,3.50
2023-01-08T00:03:41.541Z,3.17
2023-01-08T00:06:13.767Z,3.58
2023-01-08T00:08:40.437Z,3.15
2023-01-08T00:11:07.269Z,3.70
2023-01-08T00:13:34.430Z,3.72
2023-01-08T00:16:06.382Z,3.30
2023-01-08T00:18:33.279Z,2.92
2023-01-08T00:20:59.945Z,3.20
2023-01-08T00:23:27.133Z,3.22
2023-01-08T00:25:53.586Z,3.28
2023-01-08T00:28:20.974Z,2.83
2023-01-08T00:30:48.515Z,3.45
2023-01-08T00:33:15.367Z,3.33
2023-01-08T00:35:41.736Z,3.40
2023-01-08T00:38:08.441Z,3.50
2023-01-08T00:40:36.019Z,3.42
2023-01-08T00:43:02.810Z,3.33
2023-01-08T00:45:29.181Z,3.60
2023-01-08T00:47:55.632Z,3.10
2023-01-08T00:50:21.984Z,3.45
2023-01-08T00:52:48.458Z,3.63
2023-01-08T00:55:15.116Z,3.33
2023-01-08T00:57:41.471Z,3.08
2023-01-08T01:00:11.372Z,3.40
2023-01-08T01:02:38.466Z,3.30
2023-01-08T01:05:05.934Z,2.85
2023-01-08T01:07:34.142Z,3.75
2023-01-08T01:10:00.993Z,3.50
2023-01-08T01:12:28.236Z,3.58
2023-01-08T01:14:54.654Z,3.30
2023-01-08T01:17:21.092Z,3.45
2023-01-08T01:19:47.456Z,3.22
2023-01-08T01:22:13.879Z,3.17
2023-01-08T01:24:40.256Z,3.33
2023-01-08T01:27:06.793Z,3.42
2023-01-08T01:29:33.153Z,3.55
2023-01-08T01:31:59.651Z,3.17
2023-01-08T01:34:26.013Z,3.72
2023-01-08T01:36:52.440Z,3.28
2023-01-08T01:39:20.460Z,3.08
2023-01-08T01:41:47.412Z,3.38
2023-01-08T01:44:53.562Z,3.40
2023-01-08T01:47:34.081Z,3.10
2023-01-08T01:50:11.695Z,3.08
2023-01-08T01:52:47.453Z,2.83
2023-01-08T01:55:15.732Z,2.70
2023-01-08T01:57:49.010Z,3.38
2023-01-08T02:00:15.954Z,5.13
2023-01-08T02:02:42.637Z,4.60
2023-01-08T02:05:09.378Z,3.58
2023-01-08T02:08:03.193Z,3.10
2023-01-08T02:10:42.477Z,3.40
2023-01-08T02:13:14.645Z,3.40
2023-01-08T02:15:40.943Z,3.08
2023-01-08T02:18:17.792Z,3.25
2023-01-08T02:20:57.223Z,2.92
2023-01-08T02:23:34.015Z,3.08
2023-01-08T02:26:09.512Z,3.33
2023-01-08T02:28:52.486Z,3.17
2023-01-08T02:31:21.283Z,3.33
2023-01-08T02:33:47.642Z,3.00
2023-01-08T02:36:28.743Z,2.97
2023-01-08T02:39:16.279Z,3.60
2023-01-08T02:42:15.241Z,3.05
2023-01-08T02:44:50.714Z,3.00
2023-01-08T02:47:24.709Z,3.15
2023-01-08T02:49:56.570Z,3.33
2023-01-08T02:52:26.002Z,3.53
2023-01-08T02:54:54.153Z,3.00
2023-01-08T02:57:21.208Z,2.90
2023-01-08T02:59:49.999Z,2.90
2023-01-08T03:02:17.478Z,2.90
2023-01-08T03:04:54.357Z,3.03
2023-01-08T03:07:21.364Z,2.85
2023-01-08T03:09:47.991Z,3.30
2023-01-08T03:12:27.244Z,3.05
2023-01-08T03:15:04.131Z,3.13
2023-01-08T03:17:35.900Z,3.10
2023-01-08T03:20:17.412Z,3.17
2023-01-08T03:22:47.381Z,3.10
2023-01-08T03:25:15.891Z,3.20
2023-01-08T03:27:45.897Z,3.50
2023-01-08T03:30:14.258Z,2.90
2023-01-08T03:32:43.781Z,3.25
2023-01-08T03:35:14.092Z,3.45
2023-01-08T03:37:45.557Z,3.22
2023-01-08T03:40:19.669Z,3.25
2023-01-08T03:42:46.209Z,3.20
2023-01-08T03:45:12.672Z,3.45
2023-01-08T03:47:40.623Z,3.40
2023-01-08T03:50:11.763Z,3.13
2023-01-08T03:52:38.404Z,3.17
2023-01-08T03:55:05.135Z,3.45
2023-01-08T03:57:31.563Z,3.70
2023-01-08T03:59:57.951Z,2.65
2023-01-08T04:02:24.543Z,3.05
2023-01-08T04:04:51.173Z,3.08
2023-01-08T04:07:17.609Z,3.22
2023-01-08T04:09:43.984Z,3.20
2023-01-08T04:12:10.453Z,3.45
2023-01-08T04:14:36.921Z,2.97
2023-01-08T04:17:03.339Z,3.03
2023-01-08T04:19:29.820Z,3.10
2023-01-08T04:21:56.355Z,2.78
2023-01-08T04:24:22.753Z,3.25
2023-01-08T04:26:49.171Z,3.40
2023-01-08T04:29:15.751Z,3.60
2023-01-08T04:31:42.173Z,2.80
2023-01-08T04:34:10.368Z,3.15
2023-01-08T04:36:36.748Z,2.97
2023-01-08T04:39:03.843Z,3.22
2023-01-08T04:41:30.756Z,3.10
2023-01-08T04:43:57.205Z,3.20
2023-01-08T04:46:23.825Z,2.85
2023-01-08T04:48:50.274Z,3.20
2023-01-08T04:51:17.076Z,3.20
2023-01-08T04:53:43.541Z,3.17
2023-01-08T04:56:11.097Z,2.88
2023-01-08T04:58:38.562Z,3.20
2023-01-08T05:01:24.822Z,2.70
2023-01-08T05:03:56.408Z,2.80
2023-01-08T05:06:23.161Z,2.85
2023-01-08T05:08:49.633Z,3.17
2023-01-08T05:11:16.243Z,3.35
2023-01-08T05:13:42.706Z,2.85
2023-01-08T05:16:09.239Z,2.85
2023-01-08T05:18:35.723Z,3.15
2023-01-08T05:21:04.844Z,3.38
2023-01-08T05:23:32.504Z,2.83
2023-01-08T05:26:00.097Z,3.10
2023-01-08T05:28:27.809Z,3.28
2023-01-08T05:30:54.825Z,3.00
2023-01-08T05:33:21.682Z,2.72
2023-01-08T05:35:48.122Z,3.00
2023-01-08T05:38:14.766Z,3.10
2023-01-08T05:40:41.237Z,2.63
2023-01-08T05:43:07.840Z,3.05
2023-01-08T05:45:34.595Z,3.38
2023-01-08T05:48:05.117Z,3.10
2023-01-08T05:50:31.543Z,2.97
2023-01-08T05:52:57.936Z,2.88
2023-01-08T05:55:24.421Z,3.28
2023-01-08T05:57:50.859Z,2.83
2023-01-08T06:00:17.318Z,2.85
2023-01-08T06:02:47.945Z,3.13
2023-01-08T06:05:14.541Z,3.20
2023-01-08T06:07:41.101Z,3.25
2023-01-08T06:10:08.187Z,3.78
2023-01-08T06:12:34.708Z,2.97
2023-01-08T06:15:01.079Z,3.30
2023-01-08T06:17:27.652Z,3.05
2023-01-08T06:19:54.073Z,3.20
2023-01-08T06:22:20.487Z,3.22
2023-01-08T06:24:46.943Z,2.90
2023-01-08T06:27:13.304Z,3.30
2023-01-08T06:29:40.190Z,3.45
2023-01-08T06:32:06.590Z,3.13
2023-01-08T06:34:32.989Z,3.45
2023-01-08T06:36:59.472Z,3.15
2023-01-08T06:39:26.141Z,3.53
2023-01-08T06:41:52.510Z,3.10
2023-01-08T06:44:18.979Z,2.85
2023-01-08T06:46:45.750Z,3.03
2023-01-08T06:49:12.189Z,3.17
2023-01-08T06:51:38.651Z,3.45
2023-01-08T06:54:05.089Z,2.95
2023-01-08T06:56:32.218Z,3.42
2023-01-08T06:58:59.608Z,2.88
2023-01-08T07:01:26.213Z,3.13
2023-01-08T07:03:52.677Z,3.60
2023-01-08T07:06:21.465Z,3.20
2023-01-08T07:08:47.906Z,3.78
2023-01-08T07:11:15.347Z,3.58
2023-01-08T07:13:42.368Z,3.28
2023-01-08T07:16:11.298Z,3.20
2023-01-08T07:18:38.450Z,2.90
2023-01-08T07:21:06.078Z,3.15
2023-01-08T07:23:33.436Z,3.17
2023-01-08T07:26:01.726Z,3.47
2023-01-08T07:28:29.177Z,3.47
2023-01-08T07:30:55.632Z,3.00
2023-01-08T07:33:22.245Z,2.97
2023-01-08T07:35:55.403Z,3.05
2023-01-08T07:38:22.796Z,3.20
2023-01-08T07:40:49.537Z,3.40
2023-01-08T07:43:16.173Z,2.83
2023-01-08T07:45:42.688Z,3.53
2023-01-08T07:48:15.809Z,3.35
2023-01-08T07:50:45.230Z,3.08
2023-01-08T07:53:13.664Z,3.58
2023-01-08T07:55:40.134Z,3.33
2023-01-08T07:58:08.847Z,3.30
2023-01-08T08:00:35.876Z,3.45
2023-01-08T08:03:04.264Z,3.50
2023-01-08T08:05:30.769Z,3.47
2023-01-08T08:07:57.202Z,3.10
2023-01-08T08:10:23.574Z,3.42
2023-01-08T08:12:49.965Z,3.65
2023-01-08T08:15:16.363Z,3.60
2023-01-08T08:17:46.870Z,3.40
2023-01-08T08:20:13.623Z,3.63
2023-01-08T08:22:40.166Z,3.60
2023-01-08T08:25:07.145Z,3.40
2023-01-08T08:27:36.811Z,3.20
2023-01-08T08:30:04.691Z,3.53
2023-01-08T08:32:31.057Z,3.75
2023-01-08T08:34:57.559Z,3.97
2023-01-08T08:37:23.934Z,4.05
2023-01-08T08:39:50.466Z,3.38
2023-01-08T08:42:16.807Z,3.25
2023-01-08T08:44:43.455Z,3.30
2023-01-08T08:47:10.426Z,3.58
2023-01-08T08:49:36.835Z,3.75
2023-01-08T08:52:04.616Z,3.17
2023-01-08T08:54:31.012Z,3.47
2023-01-08T08:56:57.466Z,3.17
2023-01-08T08:59:23.994Z,3.33
2023-01-08T09:01:50.504Z,3.55
2023-01-08T09:04:16.874Z,3.55
2023-01-08T09:06:43.286Z,3.40
2023-01-08T09:09:09.677Z,3.97
2023-01-08T09:11:36.186Z,3.70
2023-01-08T09:14:02.588Z,3.90
2023-01-08T09:16:29.097Z,4.05
2023-01-08T09:18:55.980Z,3.80
2023-01-08T09:21:22.414Z,3.92
2023-01-08T09:23:49.148Z,4.20
2023-01-08T09:26:15.581Z,3.78
2023-01-08T09:28:42.020Z,3.95
2023-01-08T09:31:08.481Z,4.50
2023-01-08T09:33:35.561Z,3.50
2023-01-08T09:36:01.913Z,4.10
2023-01-08T09:38:30.022Z,4.13
2023-01-08T09:41:01.537Z,3.55
2023-01-08T09:43:31.537Z,4.05
2023-01-08T09:46:00.800Z,3.70
2023-01-08T09:48:29.889Z,3.72
2023-01-08T09:50:57.083Z,3.40
2023-01-08T09:53:24.279Z,3.35
2023-01-08T09:56:09.875Z,4.20
2023-01-08T09:58:51.037Z,3.33
2023-01-08T10:01:28.079Z,3.28
2023-01-08T10:04:03.969Z,3.40
2023-01-08T10:06:31.297Z,3.20
2023-01-08T10:08:58.903Z,3.53
2023-01-08T10:11:28.309Z,3.00
2023-01-08T10:13:57.153Z,3.00
2023-01-08T10:16:33.217Z,3.35
2023-01-08T10:19:00.040Z,3.47
2023-01-08T10:21:40.913Z,3.10
2023-01-08T10:24:08.104Z,3.42
2023-01-08T10:26:37.533Z,3.38
2023-01-08T10:29:19.867Z,3.40
2023-01-08T10:31:55.373Z,3.40
2023-01-08T10:34:32.716Z,3.00
2023-01-08T10:36:59.289Z,3.10
2023-01-08T10:39:28.306Z,3.03
2023-01-08T10:41:58.513Z,3.17
2023-01-08T10:44:26.254Z,3.20
2023-01-08T10:47:00.095Z,2.63
2023-01-08T10:49:33.287Z,2.80
2023-01-08T10:52:00.700Z,2.60
2023-01-08T10:54:37.314Z,2.30
2023-01-08T10:57:35.491Z,2.47
2023-01-08T11:00:01.883Z,2.70
2023-01-08T11:02:38.967Z,2.90
2023-01-08T11:05:08.761Z,3.08
2023-01-08T11:07:35.502Z,2.95
2023-01-08T11:10:03.636Z,2.80
2023-01-08T11:12:41.649Z,3.13
2023-01-08T11:15:32.864Z,3.10
2023-01-08T11:18:21.920Z,3.08
2023-01-08T11:20:49.564Z,3.10
2023-01-08T11:23:24.333Z,3.15
2023-01-08T11:26:02.621Z,2.90
2023-01-08T11:28:42.162Z,3.40
2023-01-08T11:31:45.616Z,3.90
2023-01-08T11:34:22.020Z,2.88
2023-01-08T11:37:14.799Z,3.28
2023-01-08T11:39:41.218Z,3.55
2023-01-08T11:42:34.396Z,3.75
2023-01-08T11:45:17.834Z,3.65
2023-01-08T11:47:53.375Z,3.08
2023-01-08T11:50:28.137Z,2.70
2023-01-08T11:53:45.299Z,2.95
2023-01-08T11:56:20.617Z,2.83
2023-01-08T11:59:05.889Z,2.42
2023-01-08T12:01:59.306Z,2.40
2023-01-08T12:05:01.449Z,2.38
2023-01-08T12:07:49.829Z,2.10
2023-01-08T12:10:43.852Z,2.50
2023-01-08T12:13:47.607Z,2.17
2023-01-08T12:16:59.095Z,1.92
2023-01-08T12:19:44.956Z,2.10
2023-01-08T12:22:44.646Z,2.00
2023-01-08T12:25:37.774Z,2.03
2023-01-08T12:28:42.079Z,1.90
2023-01-08T12:31:30.450Z,1.88
2023-01-08T12:34:05.229Z,1.85
2023-01-08T12:36:38.671Z,2.25
2023-01-08T12:39:12.440Z,2.10
2023-01-08T12:41:41.042Z,2.03
2023-01-08T12:44:12.032Z,2.47
2023-01-08T12:46:43.051Z,1.73
2023-01-08T12:49:14.448Z,2.13
2023-01-08T12:52:03.238Z,2.13
2023-01-08T12:54:51.601Z,2.30
2023-01-08T12:57:39.878Z,2.00
2023-01-08T13:00:40.649Z,2.42
2023-01-08T13:03:15.187Z,2.72
2023-01-08T13:05:43.603Z,2.53
2023-01-08T13:08:34.282Z,2.40
2023-01-08T13:11:01.064Z,2.55
2023-01-08T13:13:35.116Z,2.28
2023-01-08T13:16:28.005Z,2.20
2023-01-08T13:19:02.750Z,1.98
2023-01-08T13:21:36.439Z,2.40
2023-01-08T13:24:29.920Z,1.92
2023-01-08T13:26:57.610Z,2.75
2023-01-08T13:29:38.577Z,2.30
2023-01-08T13:32:39.112Z,1.95
2023-01-08T13:35:08.740Z,2.40
2023-01-08T13:37:35.200Z,1.88
2023-01-08T13:40:01.600Z,2.00
2023-01-08T13:42:28.629Z,2.03
2023-01-08T13:45:01.052Z,1.85
2023-01-08T13:47:31.856Z,2.17
2023-01-08T13:50:03.120Z,1.90
2023-01-08T13:52:46.012Z,1.73
2023-01-08T13:55:43.354Z,1.75
2023-01-08T13:58:18.143Z,1.77
2023-01-08T14:00:48.928Z,1.85
2023-01-08T14:03:24.260Z,1.80
2023-01-08T14:05:51.180Z,1.70
2023-01-08T14:08:25.484Z,1.90
2023-01-08T14:10:53.336Z,1.90
2023-01-08T14:13:26.653Z,1.88
2023-01-08T14:15:57.733Z,2.13
2023-01-08T14:18:28.891Z,2.17
2023-01-08T14:20:55.640Z,2.35
2023-01-08T14:23:28.650Z,2.00
2023-01-08T14:25:55.319Z,2.00
2023-01-08T14:28:23.020Z,2.00
2023-01-08T14:30:51.383Z,1.85
2023-01-08T14:33:20.953Z,2.03
2023-01-08T14:35:50.721Z,1.90
2023-01-08T14:38:18.161Z,1.90
2023-01-08T14:41:05.144Z,2.00
2023-01-08T14:43:40.129Z,2.20
2023-01-08T14:46:18.501Z,2.08
2023-01-08T14:48:46.073Z,1.90
2023-01-08T14:51:22.798Z,2.30
2023-01-08T14:53:52.858Z,2.40
2023-01-08T14:56:30.197Z,2.10
2023-01-08T14:58:58.175Z,2.30
2023-01-08T15:01:30.458Z,1.80
2023-01-08T15:04:13.496Z,2.03
2023-01-08T15:06:43.773Z,2.10
2023-01-08T15:09:31.021Z,2.17
2023-01-08T15:12:00.514Z,2.25
2023-01-08T15:14:30.951Z,2.30
2023-01-08T15:16:59.822Z,2.78
2023-01-08T15:19:39.871Z,1.90
2023-01-08T15:22:19.740Z,2.47
2023-01-08T15:25:01.469Z,2.40
2023-01-08T15:27:29.943Z,2.80
2023-01-08T15:30:00.205Z,3.28
2023-01-08T15:32:32.334Z,2.72
2023-01-08T15:34:58.721Z,2.53
2023-01-08T15:37:25.198Z,2.65
2023-01-08T15:39:51.591Z,3.00
2023-01-08T15:42:45.676Z,3.50
2023-01-08T15:45:15.628Z,4.75
2023-01-08T15:47:41.989Z,3.53
2023-01-08T15:50:09.344Z,2.63
2023-01-08T15:52:39.781Z,2.45
2023-01-08T15:55:07.111Z,2.25
2023-01-08T15:57:33.482Z,2.92
2023-01-08T15:59:59.875Z,2.63
2023-01-08T16:02:26.404Z,2.25
2023-01-08T16:04:55.342Z,2.20
2023-01-08T16:07:22.227Z,2.55
2023-01-08T16:09:48.660Z,2.42
2023-01-08T16:12:15.175Z,2.53
2023-01-08T16:14:41.678Z,3.33
2023-01-08T16:17:08.891Z,4.13
2023-01-08T16:19:35.413Z,4.72
2023-01-08T16:22:02.156Z,4.70
2023-01-08T16:24:28.592Z,4.07
2023-01-08T16:26:54.955Z,4.53
2023-01-08T16:29:21.583Z,3.22
2023-01-08T16:31:48.266Z,3.92
2023-01-08T16:34:15.815Z,3.45
2023-01-08T16:36:42.400Z,3.63
2023-01-08T16:39:08.920Z,3.97
2023-01-08T16:41:36.636Z,3.58
2023-01-08T16:44:03.223Z,3.35
2023-01-08T16:46:29.878Z,4.15
2023-01-08T16:48:56.329Z,3.50
2023-01-08T16:51:25.098Z,3.50
2023-01-08T16:53:51.651Z,3.10
2023-01-08T16:56:18.009Z,2.97
2023-01-08T16:58:44.417Z,3.08
2023-01-08T17:01:12.207Z,2.40
2023-01-08T17:03:39.022Z,3.17
2023-01-08T17:06:07.198Z,3.20
2023-01-08T17:08:34.040Z,3.05
2023-01-08T17:11:00.423Z,3.30
2023-01-08T17:13:26.806Z,3.22
2023-01-08T17:15:53.374Z,3.60
2023-01-08T17:18:20.237Z,2.80
2023-01-08T17:20:53.844Z,3.60
2023-01-08T17:23:24.030Z,3.20
2023-01-08T17:25:50.487Z,4.00
2023-01-08T17:28:16.848Z,3.53
2023-01-08T17:30:43.288Z,3.10
2023-01-08T17:33:09.794Z,3.47
2023-01-08T17:35:36.277Z,3.50
2023-01-08T17:38:02.625Z,3.40
2023-01-08T17:40:29.049Z,3.30
2023-01-08T17:42:55.789Z,3.13
2023-01-08T17:45:22.252Z,3.35
2023-01-08T17:47:48.664Z,4.07
2023-01-08T17:50:15.386Z,3.47
2023-01-08T17:52:41.769Z,2.70
2023-01-08T17:55:08.511Z,2.45
2023-01-08T17:57:34.889Z,2.60
2023-01-08T18:00:01.503Z,2.40
2023-01-08T18:02:28.055Z,2.15
2023-01-08T18:04:54.541Z,2.60
2023-01-08T18:07:21.036Z,2.70
2023-01-08T18:09:49.186Z,2.78
2023-01-08T18:12:15.585Z,2.42
2023-01-08T18:14:42.199Z,2.13
2023-01-08T18:17:08.561Z,1.95
2023-01-08T18:19:35.372Z,2.33
2023-01-08T18:22:01.815Z,2.60
2023-01-08T18:24:28.442Z,2.63
2023-01-08T18:26:54.939Z,2.80
2023-01-08T18:29:21.413Z,4.20
2023-01-08T18:31:47.800Z,4.57
2023-01-08T18:34:15.005Z,3.60
2023-01-08T18:36:42.389Z,2.63
2023-01-08T18:39:08.840Z,2.97
2023-01-08T18:42:13.729Z,2.60
2023-01-08T18:44:40.163Z,2.78
2023-01-08T18:47:06.526Z,2.30
2023-01-08T18:49:33.022Z,2.30
2023-01-08T18:52:00.453Z,2.05
2023-01-08T18:54:26.954Z,2.17
2023-01-08T18:56:53.350Z,2.03
2023-01-08T18:59:19.733Z,2.20
2023-01-08T19:01:46.262Z,1.90
2023-01-08T19:04:18.107Z,1.95
2023-01-08T19:06:45.372Z,2.10
2023-01-08T19:09:11.720Z,2.42
2023-01-08T19:11:38.211Z,2.30
2023-01-08T19:14:04.594Z,2.40
2023-01-08T19:16:31.059Z,2.60
2023-01-08T19:18:57.708Z,2.45
2023-01-08T19:21:24.563Z,2.60
2023-01-08T19:23:50.924Z,3.22
2023-01-08T19:26:17.621Z,2.13
2023-01-08T19:28:44.291Z,2.80
2023-01-08T19:31:13.623Z,2.60
2023-01-08T19:33:40.866Z,2.30
2023-01-08T19:36:11.155Z,2.38
2023-01-08T19:38:37.890Z,2.30
2023-01-08T19:41:07.811Z,2.20
2023-01-08T19:43:43.375Z,1.70
2023-01-08T19:46:12.036Z,1.80
2023-01-08T19:48:40.084Z,2.00
2023-01-08T19:51:08.351Z,2.30
2023-01-08T19:53:34.916Z,1.88
2023-01-08T19:56:07.361Z,2.17
2023-01-08T19:58:34.231Z,2.28
2023-01-08T20:01:05.662Z,3.03
2023-01-08T20:03:32.081Z,3.53
2023-01-08T20:05:58.584Z,2.90
2023-01-08T20:08:24.937Z,3.13
2023-01-08T20:10:51.483Z,2.65
2023-01-08T20:13:19.270Z,2.58
2023-01-08T20:15:55.144Z,2.38
2023-01-08T20:18:21.515Z,2.08
2023-01-08T20:20:48.003Z,2.13
2023-01-08T20:23:14.424Z,2.60
2023-01-08T20:25:42.015Z,2.10
2023-01-08T20:28:08.389Z,2.20
2023-01-08T20:30:34.852Z,2.33
2023-01-08T20:33:01.215Z,2.00
2023-01-08T20:35:27.740Z,2.72
2023-01-08T20:37:54.176Z,1.90
2023-01-08T20:40:20.740Z,2.30
2023-01-08T20:42:47.121Z,1.90
2023-01-08T20:45:13.478Z,2.17
2023-01-08T20:47:40.001Z,2.22
2023-01-08T20:50:12.551Z,2.58
2023-01-08T20:52:45.677Z,2.55
2023-01-08T20:55:12.051Z,2.38
2023-01-08T20:57:38.425Z,2.40
2023-01-08T21:00:05.408Z,2.33
2023-01-08T21:02:31.937Z,2.60
2023-01-08T21:04:58.296Z,2.90
2023-01-08T21:07:24.785Z,2.50
2023-01-08T21:09:51.192Z,2.53
2023-01-08T21:12:17.776Z,2.65
2023-01-08T21:14:44.126Z,2.20
2023-01-08T21:17:10.636Z,2.20
2023-01-08T21:19:37.059Z,2.60
2023-01-08T21:22:03.393Z,2.42
2023-01-08T21:24:29.932Z,2.50
2023-01-08T21:26:56.348Z,1.92
2023-01-08T21:29:23.508Z,1.90
2023-01-08T21:31:50.260Z,2.50
2023-01-08T21:34:16.725Z,2.65
2023-01-08T21:36:43.051Z,2.75
2023-01-08T21:39:11.273Z,2.80
2023-01-08T21:41:56.384Z,2.83
2023-01-08T21:44:43.931Z,2.75
2023-01-08T21:47:14.551Z,2.90
2023-01-08T21:49:40.998Z,2.90
2023-01-08T21:52:26.048Z,3.45
2023-01-08T21:54:52.859Z,3.65
2023-01-08T21:57:19.916Z,3.35
2023-01-08T21:59:50.195Z,2.90
2023-01-08T22:02:18.766Z,2.92
2023-01-08T22:04:45.257Z,2.85
2023-01-08T22:07:11.744Z,2.60
2023-01-08T22:09:38.302Z,2.60
2023-01-08T22:12:04.951Z,2.33
2023-01-08T22:14:31.392Z,2.90
2023-01-08T22:16:57.840Z,2.47
2023-01-08T22:19:24.616Z,2.40
2023-01-08T22:21:50.985Z,2.45
2023-01-08T22:24:17.386Z,3.10
2023-01-08T22:26:43.784Z,2.30
2023-01-08T22:29:10.352Z,2.60
2023-01-08T22:31:36.788Z,2.53
2023-01-08T22:34:03.337Z,2.53
2023-01-08T22:36:30.874Z,2.20
2023-01-08T22:38:57.321Z,2.17
2023-01-08T22:41:24.572Z,2.72
2023-01-08T22:43:56.510Z,2.55
2023-01-08T22:46:24.076Z,2.80
2023-01-08T22:48:50.617Z,2.40
2023-01-08T22:51:17.831Z,2.53
2023-01-08T22:53:44.283Z,2.42
2023-01-08T22:56:12.384Z,2.25
2023-01-08T22:58:45.214Z,2.40
2023-01-08T23:01:23.211Z,2.20
2023-01-08T23:03:50.856Z,2.38
2023-01-08T23:06:18.905Z,2.83
2023-01-08T23:08:46.348Z,2.35
2023-01-08T23:11:16.699Z,2.35
2023-01-08T23:13:43.104Z,2.40
2023-01-08T23:16:11.684Z,2.47
2023-01-08T23:18:38.849Z,2.15
2023-01-08T23:21:17.612Z,2.50
2023-01-08T23:23:44.817Z,2.30
2023-01-08T23:26:29.771Z,2.60
2023-01-08T23:28:57.418Z,2.30
2023-01-08T23:31:26.965Z,1.92
2023-01-08T23:33:53.914Z,2.58
2023-01-08T23:36:21.568Z,2.40
2023-01-08T23:38:50.946Z,2.20
2023-01-08T23:41:18.742Z,2.00
2023-01-08T23:43:45.962Z,2.60
2023-01-08T23:46:13.512Z,2.10
2023-01-08T23:48:39.916Z,2.30
2023-01-08T23:51:06.707Z,1.98
2023-01-08T23:53:33.070Z,2.53
2023-01-08T23:55:59.556Z,3.00
2023-01-08T23:58:25.902Z,2.83
